Time;durP1;ratioP1;P1;durP2;ratioP2;P2;SDS_P1;SDS_P2;PMS_P1;PMS_P2;Temp;Humidity;BMP_temperature;BMP_pressure;BME280_temperature;BME280_humidity;BME280_pressure;Samples;Min_cycle;Max_cycle;Signal;HPM_P1;HPM_P2
2022/10/18 00:00:40;;;;;;;0.77;0.43;;;;;;;3.46;100.00;101859.84;5050206;28;20149;-45
2022/10/18 00:03:06;;;;;;;1.70;0.50;;;;;;;3.41;100.00;101865.41;5046289;28;20110;-46
2022/10/18 00:05:32;;;;;;;3.80;0.50;;;;;;;3.41;100.00;101869.81;5047445;28;20040;-45
2022/10/18 00:07:57;;;;;;;4.32;1.13;;;;;;;3.39;100.00;101863.84;5045058;28;20029;-45
2022/10/18 00:10:23;;;;;;;1.50;0.40;;;;;;;3.33;100.00;101865.13;5050245;28;20488;-45
2022/10/18 00:12:49;;;;;;;1.20;0.20;;;;;;;3.31;100.00;101868.81;5041757;28;20033;-49
2022/10/18 00:15:15;;;;;;;2.50;0.60;;;;;;;3.27;100.00;101866.38;5041387;28;20118;-46
2022/10/18 00:17:41;;;;;;;1.08;0.82;;;;;;;3.22;100.00;101873.72;5045081;28;20115;-46
2022/10/18 00:20:07;;;;;;;5.65;0.28;;;;;;;3.21;100.00;101863.38;5040541;28;20044;-47
2022/10/18 00:22:37;;;;;;;1.70;1.13;;;;;;;3.20;100.00;101870.41;5037203;28;20431;-45
2022/10/18 00:25:05;;;;;;;1.38;0.10;;;;;;;3.14;100.00;101875.22;5040575;28;20029;-45
2022/10/18 00:27:31;;;;;;;2.03;0.32;;;;;;;3.07;100.00;101877.44;5042159;28;20103;-47
2022/10/18 00:29:58;;;;;;;2.03;0.40;;;;;;;3.01;100.00;101880.50;5036297;28;20184;-47
2022/10/18 00:32:23;;;;;;;4.93;0.50;;;;;;;2.99;100.00;101887.63;5040715;28;20037;-45
2022/10/18 00:34:49;;;;;;;3.50;0.88;;;;;;;2.99;100.00;101890.25;5038787;28;20062;-49
2022/10/18 00:37:14;;;;;;;0.63;0.30;;;;;;;2.97;100.00;101889.50;5039136;28;20100;-45
2022/10/18 00:39:40;;;;;;;0.70;0.40;;;;;;;2.97;100.00;101889.50;5044257;28;20025;-46
2022/10/18 00:42:05;;;;;;;1.13;0.38;;;;;;;3.01;100.00;101893.59;5042517;28;20028;-52
2022/10/18 00:44:31;;;;;;;0.63;0.30;;;;;;;2.97;100.00;101879.88;5040031;28;20036;-46
2022/10/18 00:47:07;;;;;;;0.43;0.20;;;;;;;2.98;100.00;101885.97;5038939;28;20035;-48
2022/10/18 00:49:37;;;;;;;0.40;0.38;;;;;;;2.96;100.00;101893.91;5035153;28;20044;-47
2022/10/18 00:52:06;;;;;;;1.08;0.28;;;;;;;2.97;100.00;101890.38;5033757;28;20496;-45
2022/10/18 00:54:34;;;;;;;5.88;0.13;;;;;;;2.97;100.00;101898.22;5033556;28;20551;-46
2022/10/18 00:57:01;;;;;;;2.85;1.20;;;;;;;2.94;100.00;101897.59;5033969;28;20044;-45
2022/10/18 00:59:27;;;;;;;1.50;0.77;;;;;;;2.92;100.00;101907.31;5043356;28;20029;-47
2022/10/18 01:01:52;;;;;;;1.90;1.30;;;;;;;2.87;100.00;101914.69;5035498;28;20056;-49
2022/10/18 01:04:19;;;;;;;2.95;0.13;;;;;;;2.83;100.00;101907.03;5048773;28;20029;-50
2022/10/18 01:07:10;;;;;;;2.17;0.32;;;;;;;2.79;100.00;101910.81;5039822;28;20044;-45
2022/10/18 01:09:40;;;;;;;3.63;0.73;;;;;;;2.72;100.00;101917.41;5034804;28;20064;-49
2022/10/18 01:12:29;;;;;;;1.77;0.57;;;;;;;2.68;100.00;101923.78;5041235;28;20559;-45
2022/10/18 01:14:57;;;;;;;2.50;0.57;;;;;;;2.59;100.00;101922.66;5039333;28;20059;-47
2022/10/18 01:17:47;;;;;;;1.25;0.00;;;;;;;2.55;100.00;101925.56;5038849;28;20033;-47
2022/10/18 01:20:34;;;;;;;1.90;0.88;;;;;;;2.48;100.00;101934.75;5034128;28;20025;-45
2022/10/18 01:23:14;;;;;;;0.08;0.03;;;;;;;2.44;100.00;101935.94;5039608;28;20052;-45
2022/10/18 01:25:52;;;;;;;0.80;0.00;;;;;;;2.44;100.00;101938.56;5038506;28;20500;-47
2022/10/18 01:28:30;;;;;;;0.75;0.17;;;;;;;2.46;100.00;101937.50;5041643;28;20041;-48
2022/10/18 01:31:03;;;;;;;0.80;0.10;;;;;;;2.52;100.00;101931.00;5033206;28;20040;-45
2022/10/18 01:34:02;;;;;;;0.55;0.40;;;;;;;2.55;100.00;101942.09;5039987;28;20079;-48
2022/10/18 01:36:34;;;;;;;1.40;0.40;;;;;;;2.50;100.00;101944.19;5033929;28;20447;-47
2022/10/18 01:39:01;;;;;;;;;;;;;;;2.50;100.00;101943.38;5036434;28;20037;-45
2022/10/18 01:41:28;;;;;;;0.88;0.52;;;;;;;2.44;100.00;101943.78;5038499;28;19925;-45
2022/10/18 01:43:57;;;;;;;2.78;0.47;;;;;;;2.45;100.00;101943.66;5034818;28;20021;-46
2022/10/18 01:46:24;;;;;;;2.33;0.32;;;;;;;2.44;100.00;101949.84;5032407;28;20041;-45
2022/10/18 01:48:51;;;;;;;2.25;0.00;;;;;;;2.46;100.00;101949.75;5038696;28;20036;-47
2022/10/18 01:51:28;;;;;;;2.28;0.30;;;;;;;2.45;100.00;101935.81;5039465;28;20037;-47
2022/10/18 01:53:54;;;;;;;0.88;0.28;;;;;;;2.39;100.00;101939.69;5036108;28;20033;-48
2022/10/18 01:56:43;;;;;;;1.95;0.88;;;;;;;2.39;100.00;101941.47;5037220;28;20029;-44
2022/10/18 02:00:06;;;;;;;0.85;0.10;;;;;;;2.35;100.00;101938.22;5031388;28;20402;-46
2022/10/18 02:02:52;;;;;;;0.13;0.13;;;;;;;2.28;100.00;101939.56;4981541;28;20069;-47
2022/10/18 02:05:35;;;;;;;0.10;0.00;;;;;;;2.20;100.00;101931.38;5034434;28;20053;-47
2022/10/18 02:08:07;;;;;;;0.95;0.20;;;;;;;2.14;100.00;101937.00;5042239;28;20068;-45
2022/10/18 02:10:39;;;;;;;;;;;;;;;2.12;100.00;101939.75;5031991;28;20398;-45
2022/10/18 02:13:05;;;;;;;3.20;0.57;;;;;;;2.08;100.00;101948.72;5039253;28;19978;-45
2022/10/18 02:15:40;;;;;;;0.30;0.10;;;;;;;2.08;100.00;101948.72;5034647;28;20111;-46
2022/10/18 02:18:09;;;;;;;0.40;0.20;;;;;;;2.04;100.00;101952.50;5036580;28;20686;-45
2022/10/18 02:20:37;;;;;;;2.25;0.20;;;;;;;2.00;100.00;101945.75;5035118;28;20040;-47
2022/10/18 02:23:06;;;;;;;2.25;0.20;;;;;;;1.96;100.00;101949.50;5038067;28;20032;-46
2022/10/18 02:25:33;;;;;;;3.47;0.65;;;;;;;1.95;100.00;101948.66;5034239;28;20029;-47
2022/10/18 02:28:00;;;;;;;1.77;0.20;;;;;;;1.98;100.00;101946.81;5036087;28;20048;-47
2022/10/18 02:30:36;;;;;;;2.40;0.60;;;;;;;1.94;100.00;101947.00;5033073;28;20087;-49
2022/10/18 02:33:11;;;;;;;5.05;0.30;;;;;;;1.87;100.00;101945.72;5041788;28;20037;-46
2022/10/18 02:35:43;;;;;;;0.55;0.28;;;;;;;1.84;100.00;101948.53;5033543;28;20032;-45
2022/10/18 02:38:11;;;;;;;0.75;0.15;;;;;;;1.81;100.00;101946.13;5030798;28;20037;-50
2022/10/18 02:40:36;;;;;;;4.57;0.17;;;;;;;1.78;100.00;101956.75;5031990;28;20029;-46
2022/10/18 02:43:05;;;;;;;1.35;0.50;;;;;;;1.79;100.00;101953.22;5032273;28;20028;-45
2022/10/18 02:45:31;;;;;;;2.47;0.98;;;;;;;1.75;100.00;101956.94;5040693;28;20091;-49
2022/10/18 02:47:56;;;;;;;0.10;0.05;;;;;;;1.69;100.00;101955.56;5035505;28;20503;-46
2022/10/18 02:50:21;;;;;;;1.92;1.05;;;;;;;1.66;100.00;101965.41;5043740;28;20171;-46
2022/10/18 02:52:47;;;;;;;2.67;0.28;;;;;;;1.64;100.00;101960.25;5036046;28;20052;-45
2022/10/18 02:55:12;;;;;;;1.27;0.63;;;;;;;1.62;100.00;101956.88;5039040;28;20032;-48
2022/10/18 02:57:37;;;;;;;0.82;0.40;;;;;;;1.62;100.00;101964.72;5042977;28;20033;-46
2022/10/18 03:00:04;;;;;;;0.98;0.30;;;;;;;1.64;100.00;101962.88;5039886;28;20026;-45
2022/10/18 03:02:30;;;;;;;0.25;0.10;;;;;;;1.67;100.00;101965.28;5038327;28;20033;-46
2022/10/18 03:04:55;;;;;;;6.50;0.30;;;;;;;1.71;100.00;101968.56;5037293;28;20554;-45
2022/10/18 03:07:20;;;;;;;2.17;0.15;;;;;;;1.86;100.00;101972.81;5040820;28;20025;-46
2022/10/18 03:09:46;;;;;;;1.02;0.10;;;;;;;1.90;100.00;101963.81;5033409;28;20116;-45
2022/10/18 03:12:11;;;;;;;1.05;0.10;;;;;;;1.88;100.00;101965.69;5035067;28;20443;-46
2022/10/18 03:14:37;;;;;;;0.50;0.32;;;;;;;1.80;100.00;101964.50;5031658;28;20032;-46
2022/10/18 03:17:02;;;;;;;0.47;0.20;;;;;;;1.73;100.00;101975.38;5038721;28;20108;-46
2022/10/18 03:19:27;;;;;;;1.27;0.20;;;;;;;1.76;100.00;101976.97;5040216;28;20680;-47
2022/10/18 03:21:53;;;;;;;1.33;0.68;;;;;;;1.80;100.00;101975.81;5040000;28;20077;-45
2022/10/18 03:24:18;;;;;;;2.35;0.28;;;;;;;1.84;100.00;101977.31;5048180;28;20068;-46
2022/10/18 03:26:43;;;;;;;9.82;1.15;;;;;;;1.89;100.00;101977.84;5046180;28;20044;-46
2022/10/18 03:29:10;;;;;;;2.95;0.10;;;;;;;1.93;100.00;101975.88;5047875;28;20037;-45
2022/10/18 03:31:35;;;;;;;2.97;0.13;;;;;;;1.93;100.00;101975.88;5045047;28;20075;-46
2022/10/18 03:34:01;;;;;;;0.68;0.40;;;;;;;1.92;100.00;101980.25;5036617;28;20022;-46
2022/10/18 03:36:26;;;;;;;0.95;0.10;;;;;;;1.93;100.00;101981.94;5039894;28;20025;-49
2022/10/18 03:38:52;;;;;;;7.25;0.20;;;;;;;1.93;100.00;101984.53;5039399;28;20439;-50
2022/10/18 03:41:17;;;;;;;2.28;0.30;;;;;;;2.01;100.00;101988.44;5040571;28;20112;-46
2022/10/18 03:43:42;;;;;;;5.38;0.38;;;;;;;2.08;100.00;101987.13;5045936;28;20060;-47
2022/10/18 03:46:08;;;;;;;1.27;0.10;;;;;;;2.11;100.00;102000.00;5042247;28;20360;-46
2022/10/18 03:48:33;;;;;;;4.72;1.15;;;;;;;2.12;100.00;101994.69;5046832;28;20442;-45
2022/10/18 03:50:59;;;;;;;3.30;0.45;;;;;;;2.13;100.00;101991.13;5043787;28;20041;-51
2022/10/18 03:53:24;;;;;;;6.43;1.00;;;;;;;2.16;100.00;101995.31;5035006;28;20025;-47
2022/10/18 03:55:51;;;;;;;1.42;0.70;;;;;;;2.17;100.00;101997.00;5041488;28;20029;-48
2022/10/18 03:58:17;;;;;;;0.70;0.40;;;;;;;2.17;100.00;101999.63;5039786;28;20028;-45
2022/10/18 04:00:42;;;;;;;5.10;0.55;;;;;;;2.16;100.00;102008.41;5040630;28;20029;-46
2022/10/18 04:03:07;;;;;;;5.88;0.68;;;;;;;2.16;100.00;102000.56;5040826;28;20054;-46
2022/10/18 04:05:33;;;;;;;12.23;0.70;;;;;;;2.19;100.00;102002.97;5040597;28;20056;-45
2022/10/18 04:07:58;;;;;;;4.13;0.38;;;;;;;2.21;100.00;102001.09;5046679;28;20417;-46
2022/10/18 04:10:24;;;;;;;3.13;0.68;;;;;;;2.25;100.00;101999.97;5037777;28;20444;-46
2022/10/18 04:12:50;;;;;;;3.42;0.47;;;;;;;2.28;100.00;101997.16;5043322;28;20025;-46
2022/10/18 04:15:15;;;;;;;0.30;0.10;;;;;;;2.31;100.00;102001.34;5034537;28;20033;-47
2022/10/18 04:17:41;;;;;;;0.40;0.40;;;;;;;2.31;100.00;101998.72;5039343;28;20116;-46
2022/10/18 04:20:06;;;;;;;7.03;0.57;;;;;;;2.32;100.00;101992.53;5044356;28;20486;-48
2022/10/18 04:22:32;;;;;;;2.30;0.43;;;;;;;2.33;100.00;101995.06;5037740;28;20029;-48
2022/10/18 04:24:57;;;;;;;2.33;0.70;;;;;;;2.31;100.00;102002.19;5040756;28;20054;-46
2022/10/18 04:27:23;;;;;;;1.98;0.22;;;;;;;2.29;100.00;102001.44;5040136;28;20057;-51
2022/10/18 04:29:48;;;;;;;3.40;0.80;;;;;;;2.27;100.00;102007.69;5048929;28;20040;-47
2022/10/18 04:32:13;;;;;;;1.00;0.30;;;;;;;2.26;100.00;102004.25;5035646;28;20363;-46
2022/10/18 04:34:39;;;;;;;0.80;0.20;;;;;;;2.22;100.00;101999.31;5036723;28;20027;-47
2022/10/18 04:37:04;;;;;;;4.68;0.30;;;;;;;2.17;100.00;102010.94;5038186;28;20021;-48
2022/10/18 04:39:29;;;;;;;2.25;0.45;;;;;;;2.15;100.00;102011.97;5044109;28;20025;-46
2022/10/18 04:41:55;;;;;;;2.65;0.52;;;;;;;2.13;100.00;102014.69;5043085;28;20059;-47
2022/10/18 04:44:20;;;;;;;2.75;0.40;;;;;;;2.13;100.00;102008.59;5039343;28;20124;-46
2022/10/18 04:46:45;;;;;;;0.28;0.00;;;;;;;2.12;100.00;102013.00;5033709;28;20363;-46
2022/10/18 04:49:11;;;;;;;3.22;0.35;;;;;;;2.10;100.00;102011.44;5040110;28;20035;-46
2022/10/18 04:51:36;;;;;;;1.55;0.43;;;;;;;2.06;100.00;102015.16;5032551;28;20029;-46
2022/10/18 04:54:01;;;;;;;0.75;0.05;;;;;;;2.03;100.00;102013.59;5036377;28;20029;-50
2022/10/18 04:56:27;;;;;;;1.23;0.17;;;;;;;2.04;100.00;102017.03;5039373;28;20207;-48
2022/10/18 04:58:52;;;;;;;4.18;0.38;;;;;;;2.02;100.00;102021.56;5034362;28;20029;-45
2022/10/18 05:01:18;;;;;;;2.05;0.20;;;;;;;1.98;100.00;102017.44;5041835;28;20039;-46
2022/10/18 05:03:43;;;;;;;1.75;0.20;;;;;;;1.95;100.00;102016.69;5034215;28;20042;-46
2022/10/18 05:06:08;;;;;;;0.10;0.03;;;;;;;1.92;100.00;102011.66;5030596;28;20029;-45
2022/10/18 05:08:35;;;;;;;1.67;0.40;;;;;;;1.90;100.00;102017.91;5041817;28;20036;-46
2022/10/18 05:11:01;;;;;;;2.22;0.60;;;;;;;1.89;100.00;102026.72;5032504;28;20061;-47
2022/10/18 05:13:26;;;;;;;1.13;0.55;;;;;;;1.87;100.00;102029.41;5039608;28;20057;-46
2022/10/18 05:15:51;;;;;;;4.95;0.73;;;;;;;1.84;100.00;102034.84;5033946;28;20092;-47
2022/10/18 05:18:17;;;;;;;0.30;0.03;;;;;;;1.79;100.00;102028.22;5035371;28;20041;-46
2022/10/18 05:20:42;;;;;;;1.02;0.20;;;;;;;1.76;100.00;102039.72;5033386;28;20037;-46
2022/10/18 05:23:11;;;;;;;1.80;1.02;;;;;;;1.74;100.00;102036.34;5041645;28;20044;-47
2022/10/18 05:25:42;;;;;;;3.47;0.68;;;;;;;1.71;100.00;102039.16;5035610;28;20029;-46
2022/10/18 05:28:08;;;;;;;4.57;0.88;;;;;;;1.66;100.00;102041.22;5037307;28;20167;-46
2022/10/18 05:30:37;;;;;;;0.80;0.10;;;;;;;1.69;100.00;102046.25;5037048;28;20544;-47
2022/10/18 05:33:03;;;;;;;0.95;0.20;;;;;;;1.64;100.00;102045.72;5037643;28;20057;-50
2022/10/18 05:35:28;;;;;;;1.08;0.20;;;;;;;1.61;100.00;102048.50;5035282;28;20534;-47
2022/10/18 05:37:53;;;;;;;0.52;0.15;;;;;;;1.59;100.00;102045.97;5042078;28;20029;-48
2022/10/18 05:40:19;;;;;;;0.17;0.15;;;;;;;1.55;100.00;102048.88;5037993;28;20029;-48
2022/10/18 05:42:44;;;;;;;0.57;0.52;;;;;;;1.50;100.00;102050.00;5034608;28;20029;-52
2022/10/18 05:45:09;;;;;;;0.20;0.20;;;;;;;1.48;100.00;102054.50;5039706;28;20363;-48
2022/10/18 05:47:35;;;;;;;0.38;0.10;;;;;;;1.46;100.00;102058.97;5033437;28;20110;-46
2022/10/18 05:50:00;;;;;;;0.70;0.03;;;;;;;1.48;100.00;102059.72;5035703;28;20033;-46
2022/10/18 05:52:25;;;;;;;6.70;0.13;;;;;;;1.51;100.00;102056.06;5035308;28;20025;-46
2022/10/18 05:54:51;;;;;;;0.47;0.10;;;;;;;1.50;100.00;102062.25;5037085;28;20111;-45
2022/10/18 05:57:16;;;;;;;0.20;0.20;;;;;;;1.48;100.00;102061.50;5037608;28;20466;-51
2022/10/18 05:59:43;;;;;;;3.03;0.35;;;;;;;1.45;100.00;102069.53;5032070;28;20040;-47
2022/10/18 06:02:10;;;;;;;0.57;0.20;;;;;;;1.40;100.00;102063.75;5033665;28;20040;-46
2022/10/18 06:04:35;;;;;;;11.07;0.40;;;;;;;1.38;100.00;102061.19;5040430;28;20029;-45
2022/10/18 06:07:01;;;;;;;1.55;0.20;;;;;;;1.33;100.00;102067.66;5033153;28;20025;-46
2022/10/18 06:09:27;;;;;;;3.22;0.20;;;;;;;1.27;100.00;102066.25;5026656;28;21115;-49
2022/10/18 06:11:53;;;;;;;1.10;0.25;;;;;;;1.20;100.00;102064.94;5035854;28;20030;-49
2022/10/18 06:14:18;;;;;;;1.02;0.20;;;;;;;1.19;100.00;102052.78;5028131;28;20021;-46
2022/10/18 06:16:43;;;;;;;3.08;0.32;;;;;;;1.20;100.00;102051.88;5030381;28;20030;-45
2022/10/18 06:19:09;;;;;;;0.28;0.20;;;;;;;1.18;100.00;102051.94;5034603;28;20138;-51
2022/10/18 06:21:34;;;;;;;0.52;0.10;;;;;;;1.17;100.00;102058.09;5040088;28;20492;-48
2022/10/18 06:24:00;;;;;;;0.70;0.43;;;;;;;1.15;100.00;102061.75;5039197;28;20085;-49
2022/10/18 06:26:26;;;;;;;0.88;0.45;;;;;;;1.17;100.00;102054.66;5033930;28;20144;-45
2022/10/18 06:28:52;;;;;;;1.10;0.10;;;;;;;1.12;100.00;102051.47;5039214;28;20387;-47
2022/10/18 06:31:17;;;;;;;1.08;0.10;;;;;;;1.04;100.00;102051.94;5034531;28;20031;-46
2022/10/18 06:33:44;;;;;;;0.43;0.28;;;;;;;1.01;100.00;102057.34;5033500;28;20041;-51
2022/10/18 06:36:13;;;;;;;0.47;0.38;;;;;;;0.98;100.00;102060.13;5047053;28;20032;-48
2022/10/18 06:38:39;;;;;;;4.78;0.57;;;;;;;0.94;100.00;102064.69;5039434;28;20017;-47
2022/10/18 06:41:06;;;;;;;0.13;0.10;;;;;;;0.97;100.00;102059.28;5026662;28;20119;-49
2022/10/18 06:43:31;;;;;;;3.00;0.60;;;;;;;0.99;100.00;102061.81;5035169;28;20021;-48
2022/10/18 06:46:01;;;;;;;1.52;0.20;;;;;;;1.02;100.00;102065.06;5026527;28;20284;-47
2022/10/18 06:48:26;;;;;;;0.08;0.03;;;;;;;0.97;100.00;102064.50;5025615;28;20047;-47
2022/10/18 06:50:57;;;;;;;1.35;0.90;;;;;;;0.95;100.00;102066.34;5030713;28;20029;-47
2022/10/18 06:53:27;;;;;;;0.10;0.00;;;;;;;0.92;100.00;102077.00;5038629;28;20056;-48
2022/10/18 06:56:05;;;;;;;0.40;0.20;;;;;;;0.98;100.00;102065.34;5031309;28;20048;-46
2022/10/18 06:58:30;;;;;;;2.28;0.40;;;;;;;0.98;100.00;102074.03;5036861;28;20040;-47
2022/10/18 07:00:56;;;;;;;0.70;0.20;;;;;;;1.00;100.00;102074.75;5036723;28;20375;-50
2022/10/18 07:03:22;;;;;;;0.52;0.35;;;;;;;1.02;100.00;102080.75;5038867;28;20018;-48
2022/10/18 07:05:50;;;;;;;1.10;0.05;;;;;;;1.04;100.00;102081.50;5036997;28;20395;-47
2022/10/18 07:08:17;;;;;;;3.72;0.10;;;;;;;1.04;100.00;102078.91;5032773;28;20440;-44
2022/10/18 07:10:50;;;;;;;0.45;0.30;;;;;;;1.07;100.00;102085.72;5038125;28;20094;-47
2022/10/18 07:13:16;;;;;;;0.10;0.00;;;;;;;1.07;100.00;102088.31;5043029;28;20069;-49
2022/10/18 07:15:41;;;;;;;0.28;0.10;;;;;;;1.07;100.00;102094.38;5043113;28;20125;-48
2022/10/18 07:18:06;;;;;;;0.00;0.00;;;;;;;1.06;100.00;102092.72;5037843;28;20033;-47
2022/10/18 07:20:32;;;;;;;0.65;0.10;;;;;;;1.07;100.00;102093.53;5035015;28;20034;-47
2022/10/18 07:22:57;;;;;;;0.68;0.25;;;;;;;1.10;100.00;102090.75;5040780;28;20033;-46
2022/10/18 07:25:23;;;;;;;0.75;0.10;;;;;;;1.13;100.00;102097.56;5040460;28;20033;-44
2022/10/18 07:27:48;;;;;;;0.47;0.03;;;;;;;1.14;100.00;102102.72;5043429;28;20044;-45
2022/10/18 07:30:14;;;;;;;0.38;0.10;;;;;;;1.16;100.00;102105.22;5048178;28;20479;-46
2022/10/18 07:32:39;;;;;;;3.92;0.20;;;;;;;1.17;100.00;102107.75;5044976;28;20033;-46
2022/10/18 07:35:05;;;;;;;0.20;0.10;;;;;;;1.17;100.00;102112.16;5063260;28;20094;-45
2022/10/18 07:37:30;;;;;;;0.17;0.10;;;;;;;1.18;100.00;102108.59;5047995;28;20061;-45
2022/10/18 07:39:56;;;;;;;2.72;0.20;;;;;;;1.22;100.00;102115.31;5043954;28;20040;-49
2022/10/18 07:42:21;;;;;;;0.85;0.30;;;;;;;1.31;100.00;102117.38;5044626;28;20132;-44
2022/10/18 07:44:46;;;;;;;3.03;0.10;;;;;;;1.53;100.00;102120.41;5029691;28;20033;-44
2022/10/18 07:47:12;;;;;;;3.78;0.25;;;;;;;1.75;100.00;102119.94;5032314;28;20056;-47
2022/10/18 07:49:37;;;;;;;0.90;0.55;;;;;;;1.94;100.00;102124.91;5046952;28;20029;-46
2022/10/18 07:52:03;;;;;;;1.42;0.38;;;;;;;2.18;100.00;102122.53;5053618;28;20022;-46
2022/10/18 07:54:29;;;;;;;0.55;0.15;;;;;;;2.38;100.00;102133.53;5046989;28;20036;-47
2022/10/18 07:56:54;;;;;;;2.10;0.17;;;;;;;2.54;100.00;102141.25;5037874;28;20060;-46
2022/10/18 07:59:19;;;;;;;1.40;0.75;;;;;;;2.71;100.00;102135.75;5035070;28;20116;-46
2022/10/18 08:01:45;;;;;;;1.00;0.28;;;;;;;2.91;100.00;102141.47;5045236;28;20059;-47
2022/10/18 08:04:10;;;;;;;2.90;0.30;;;;;;;3.08;100.00;102132.50;5046997;28;20025;-48
2022/10/18 08:06:35;;;;;;;3.45;0.40;;;;;;;3.25;100.00;102145.31;5046353;28;20029;-48
2022/10/18 08:09:01;;;;;;;6.32;0.32;;;;;;;3.42;100.00;102144.19;5047084;28;20036;-49
2022/10/18 08:11:26;;;;;;;2.65;0.30;;;;;;;3.58;100.00;102142.19;5047574;28;20086;-47
2022/10/18 08:13:52;;;;;;;0.57;0.22;;;;;;;3.74;100.00;102152.47;5051403;28;20427;-48
2022/10/18 08:16:26;;;;;;;5.97;1.13;;;;;;;3.86;100.00;102151.63;5043323;28;20536;-50
2022/10/18 08:18:52;;;;;;;2.10;0.28;;;;;;;4.01;100.00;102156.78;5042254;28;20533;-46
2022/10/18 08:21:19;;;;;;;0.60;0.10;;;;;;;4.19;100.00;102159.91;5036584;28;20071;-47
2022/10/18 08:23:45;;;;;;;2.40;0.40;;;;;;;4.35;100.00;102158.69;5047155;28;20029;-47
2022/10/18 08:26:14;;;;;;;4.45;1.85;;;;;;;4.66;100.00;102160.91;5049226;28;20017;-47
2022/10/18 08:28:40;;;;;;;7.25;0.30;;;;;;;4.95;100.00;102166.66;5038667;28;20632;-47
2022/10/18 08:31:08;;;;;;;1.67;0.30;;;;;;;5.12;100.00;102175.94;5038091;28;20052;-47
2022/10/18 08:33:35;;;;;;;7.40;0.40;;;;;;;5.26;100.00;102170.47;5046315;28;20379;-47
2022/10/18 08:36:04;;;;;;;1.92;0.28;;;;;;;5.41;100.00;102179.00;5050755;28;20104;-47
2022/10/18 08:38:30;;;;;;;4.10;0.75;;;;;;;5.56;100.00;102180.47;5047036;28;20143;-47
2022/10/18 08:40:58;;;;;;;4.30;0.73;;;;;;;5.77;100.00;102180.63;5050317;28;20032;-47
2022/10/18 08:43:29;;;;;;;1.65;0.60;;;;;;;6.04;100.00;102187.38;5038733;28;20944;-47
2022/10/18 08:45:55;;;;;;;0.95;0.32;;;;;;;6.27;100.00;102189.06;5042652;28;20049;-47
2022/10/18 08:48:38;;;;;;;4.32;1.70;;;;;;;6.54;100.00;102190.44;5044790;28;20106;-49
2022/10/18 08:51:11;;;;;;;2.85;0.10;;;;;;;6.74;100.00;102194.13;5042187;28;20402;-47
2022/10/18 08:54:10;;;;;;;1.98;0.20;;;;;;;6.98;100.00;102186.00;5043095;28;20140;-46
2022/10/18 08:56:38;;;;;;;5.07;0.38;;;;;;;7.24;100.00;102188.31;5038211;28;20482;-45
2022/10/18 08:59:08;;;;;;;0.75;0.40;;;;;;;7.50;100.00;102194.03;5040612;28;20490;-45
2022/10/18 09:01:43;;;;;;;2.63;0.30;;;;;;;7.67;100.00;102193.47;5046482;28;20060;-46
2022/10/18 09:04:27;;;;;;;0.90;0.40;;;;;;;7.81;100.00;102197.56;5037310;28;20035;-46
2022/10/18 09:07:11;;;;;;;1.65;0.35;;;;;;;8.00;100.00;102195.03;5042912;28;20428;-45
2022/10/18 09:09:51;;;;;;;1.75;0.35;;;;;;;8.14;100.00;102193.00;5037866;28;20111;-46
2022/10/18 09:12:20;;;;;;;1.02;0.68;;;;;;;8.41;100.00;102189.75;5041890;28;20030;-46
2022/10/18 09:15:00;;;;;;;1.20;0.20;;;;;;;8.64;100.00;102195.66;5047847;28;20041;-46
2022/10/18 09:18:12;;;;;;;4.65;0.15;;;;;;;8.90;100.00;102191.50;5041443;28;20040;-45
2022/10/18 09:20:52;;;;;;;3.13;0.13;;;;;;;9.15;100.00;102184.00;5032281;28;20295;-45
2022/10/18 09:23:30;;;;;;;5.35;2.92;;;;;;;9.41;100.00;102194.03;5044020;28;20036;-45
2022/10/18 09:26:08;;;;;;;0.45;0.10;;;;;;;9.75;100.00;102187.25;5047352;28;20111;-47
2022/10/18 09:28:40;;;;;;;1.30;1.05;;;;;;;9.92;100.00;102190.13;5037357;28;20049;-49
2022/10/18 09:31:25;;;;;;;4.22;0.20;;;;;;;10.28;100.00;102192.94;5044087;28;20029;-45
2022/10/18 09:34:00;;;;;;;0.47;0.10;;;;;;;10.71;100.00;102202.88;5044427;28;20029;-48
2022/10/18 09:36:34;;;;;;;0.75;0.35;;;;;;;11.01;100.00;102195.53;5049966;28;20287;-46
2022/10/18 09:39:04;;;;;;;3.42;0.30;;;;;;;11.26;100.00;102199.25;5036020;28;20036;-48
2022/10/18 09:41:36;;;;;;;5.30;1.17;;;;;;;11.48;100.00;102190.78;5037163;28;20548;-46
2022/10/18 09:44:17;;;;;;;3.55;0.77;;;;;;;11.70;100.00;102186.78;5055314;28;20032;-45
2022/10/18 09:46:49;;;;;;;1.50;0.57;;;;;;;11.83;100.00;102185.53;5049555;28;20057;-49
2022/10/18 09:50:01;;;;;;;4.22;0.32;;;;;;;11.94;100.00;102182.63;5048561;28;20278;-47
2022/10/18 09:52:41;;;;;;;5.32;0.50;;;;;;;12.06;100.00;102167.25;5046216;28;20383;-50
2022/10/18 09:55:23;;;;;;;2.53;0.30;;;;;;;12.28;100.00;102171.13;5044197;28;20054;-49
2022/10/18 09:57:54;;;;;;;5.88;0.50;;;;;;;12.41;100.00;102163.53;5051838;28;20116;-46
2022/10/18 10:00:27;;;;;;;2.77;1.57;;;;;;;12.53;100.00;102164.06;5052930;28;20482;-46
2022/10/18 10:02:52;;;;;;;3.85;0.52;;;;;;;12.59;100.00;102163.41;5044308;28;20067;-48
2022/10/18 10:05:18;;;;;;;2.90;0.20;;;;;;;12.70;100.00;102159.59;5037905;28;20021;-49
2022/10/18 10:07:46;;;;;;;2.17;0.10;;;;;;;12.80;100.00;102169.13;5048087;28;20037;-46
2022/10/18 10:10:20;;;;;;;2.05;0.20;;;;;;;12.96;100.00;102152.31;5040851;28;20045;-46
2022/10/18 10:12:46;;;;;;;2.10;0.85;;;;;;;13.14;100.00;102157.47;5038027;28;20083;-47
2022/10/18 10:15:22;;;;;;;5.20;1.27;;;;;;;13.19;100.00;102144.50;5042543;28;20064;-46
2022/10/18 10:18:20;;;;;;;6.00;0.43;;;;;;;13.31;100.00;102142.31;5043155;28;20037;-46
2022/10/18 10:20:50;;;;;;;6.70;0.45;;;;;;;13.50;100.00;102138.47;5041540;28;20037;-52
2022/10/18 10:23:32;;;;;;;10.13;1.33;;;;;;;13.58;100.00;102135.81;5039578;28;20033;-47
2022/10/18 10:26:00;;;;;;;11.35;1.00;;;;;;;13.60;100.00;102124.94;5042822;28;20025;-47
2022/10/18 10:28:33;;;;;;;4.07;0.45;;;;;;;13.69;100.00;102124.75;5040811;28;20486;-46
2022/10/18 10:31:23;;;;;;;2.30;0.10;;;;;;;13.76;100.00;102122.25;5039283;28;20040;-47
2022/10/18 10:33:58;;;;;;;2.22;0.10;;;;;;;13.83;100.00;102133.03;5048112;28;20542;-50
2022/10/18 10:36:24;;;;;;;2.33;0.30;;;;;;;13.98;100.00;102120.66;5044545;28;20037;-48
2022/10/18 10:39:08;;;;;;;1.08;0.30;;;;;;;14.07;100.00;102110.75;5044908;28;20071;-46
2022/10/18 10:41:33;;;;;;;2.50;0.95;;;;;;;14.11;100.00;102104.91;5033689;28;20038;-46
2022/10/18 10:44:03;;;;;;;2.20;0.45;;;;;;;14.11;100.00;102112.09;5038150;28;20778;-46
2022/10/18 10:46:35;;;;;;;8.98;1.90;;;;;;;14.21;100.00;102115.38;5040040;28;20021;-47
2022/10/18 10:49:02;;;;;;;1.13;0.22;;;;;;;14.36;100.00;102118.13;5040285;28;20478;-48
2022/10/18 10:51:31;;;;;;;2.92;0.10;;;;;;;14.44;100.00;102107.41;5042167;28;20518;-46
2022/10/18 10:53:57;;;;;;;2.00;0.30;;;;;;;14.57;100.00;102107.66;5039319;28;20030;-48
2022/10/18 10:56:24;;;;;;;1.63;0.32;;;;;;;14.77;100.00;102096.53;5033011;28;20437;-48
2022/10/18 10:58:51;;;;;;;1.35;0.03;;;;;;;14.88;100.00;102095.25;5034869;28;20379;-51
2022/10/18 11:01:30;;;;;;;3.08;0.25;;;;;;;14.86;100.00;102102.63;5042214;28;20033;-51
2022/10/18 11:03:59;;;;;;;5.55;1.27;;;;;;;14.97;100.00;102096.84;5035499;28;20120;-47
2022/10/18 11:06:38;;;;;;;7.03;0.38;;;;;;;15.04;100.00;102101.28;5036830;28;20432;-46
2022/10/18 11:09:11;;;;;;;2.40;0.70;;;;;;;15.23;100.00;102099.94;5038679;28;20120;-46
2022/10/18 11:11:45;;;;;;;4.50;0.28;;;;;;;15.20;100.00;102100.28;5035451;28;20036;-46
2022/10/18 11:14:16;;;;;;;3.35;0.13;;;;;;;15.19;100.00;102103.16;5035209;28;20033;-48
2022/10/18 11:16:54;;;;;;;4.00;1.35;;;;;;;15.34;100.00;102096.00;5033821;28;20474;-47
2022/10/18 11:19:34;;;;;;;3.75;0.65;;;;;;;15.48;100.00;102097.00;5034643;28;20552;-48
2022/10/18 11:22:03;;;;;;;0.77;0.43;;;;;;;15.66;100.00;102101.97;5037229;28;20029;-47
2022/10/18 11:24:30;;;;;;;2.92;0.28;;;;;;;15.86;100.00;102099.59;5039473;28;20100;-51
2022/10/18 11:27:05;;;;;;;1.23;0.25;;;;;;;15.90;100.00;102096.38;5044849;28;20028;-46
2022/10/18 11:29:47;;;;;;;3.92;0.50;;;;;;;15.95;100.00;102094.97;5032002;28;20032;-48
2022/10/18 11:32:39;;;;;;;5.72;0.75;;;;;;;15.95;100.00;102103.00;5038572;28;20108;-46
2022/10/18 11:35:29;;;;;;;2.33;0.70;;;;;;;15.92;100.00;102104.19;5036721;28;20024;-46